Time;durP1;ratioP1;P1;durP2;ratioP2;P2;SDS_P1;SDS_P2;PMS_P1;PMS_P2;Temp;Humidity;BMP_temperature;BMP_pressure;BME280_temperature;BME280_humidity;BME280_pressure;Samples;Min_cycle;Max_cycle;Signal;HPM_P1;HPM_P2
2021/01/09 00:00:54;;;;;;;;;;;;;;;19.22;61.24;100874.75;5075820;28;1738;-61
2021/01/09 00:03:20;;;;;;;;;;;;;;;19.19;61.26;100869.66;5075650;28;1778;-59
2021/01/09 00:05:45;;;;;;;;;;;;;;;19.15;61.08;100870.06;5073537;28;2091;-61
2021/01/09 00:08:11;;;;;;;;;;;;;;;19.22;61.23;100879.28;5074194;28;1624;-61
2021/01/09 00:10:36;;;;;;;;;;;;;;;19.20;60.93;100870.50;5069368;28;1710;-61
2021/01/09 00:13:01;;;;;;;;;;;;;;;19.22;60.79;100887.31;5075126;28;1636;-61
2021/01/09 00:15:27;;;;;;;;;;;;;;;19.22;60.92;100895.38;5082016;28;1730;-59
2021/01/09 00:17:52;;;;;;;;;;;;;;;19.26;60.68;100907.53;5083965;28;1967;-59
2021/01/09 00:20:18;;;;;;;;;;;;;;;19.28;60.31;100897.50;5069119;28;1632;-59
2021/01/09 00:22:43;;;;;;;;;;;;;;;19.31;60.55;100872.25;5067476;28;1461;-60
2021/01/09 00:25:16;;;;;;;;;;;;;;;19.34;60.29;100874.63;5069444;28;1512;-61
2021/01/09 00:27:41;;;;;;;;;;;;;;;19.39;61.31;100909.97;5086690;28;1818;-61
2021/01/09 00:30:07;;;;;;;;;;;;;;;19.30;62.95;100887.50;5069902;28;1694;-61
2021/01/09 00:32:32;;;;;;;;;;;;;;;19.35;62.50;100893.28;5073257;28;1723;-61
2021/01/09 00:34:57;;;;;;;;;;;;;;;19.72;59.79;100897.28;5081689;28;1691;-61
2021/01/09 00:37:27;;;;;;;;;;;;;;;20.10;58.86;100890.28;5075803;28;1945;-59
2021/01/09 00:39:52;;;;;;;;;;;;;;;20.31;58.09;100887.44;5075147;28;1648;-59
2021/01/09 00:42:18;;;;;;;;;;;;;;;20.43;57.44;100887.19;5088870;28;1452;-61
2021/01/09 00:44:43;;;;;;;;;;;;;;;20.44;57.61;100896.09;5081841;28;1496;-61
2021/01/09 00:47:08;;;;;;;;;;;;;;;20.43;56.64;100876.44;5069530;28;1624;-61
2021/01/09 00:49:34;;;;;;;;;;;;;;;20.45;57.46;100892.41;5084123;28;1630;-61
2021/01/09 00:51:59;;;;;;;;;;;;;;;20.26;57.64;100902.16;5080192;28;1508;-61
2021/01/09 00:54:24;;;;;;;;;;;;;;;20.14;57.86;100892.53;5074098;28;1699;-61
2021/01/09 00:56:53;;;;;;;;;;;;;;;20.10;59.23;100901.88;5073115;28;1957;-59
2021/01/09 00:59:19;;;;;;;;;;;;;;;19.93;59.99;100905.22;5082414;28;1822;-59
2021/01/09 01:01:45;;;;;;;;;;;;;;;19.74;60.61;100906.88;5084563;28;1738;-61
2021/01/09 01:04:10;;;;;;;;;;;;;;;19.66;60.66;100904.00;5080157;28;1628;-59
2021/01/09 01:06:36;;;;;;;;;;;;;;;19.60;60.19;100904.56;5072184;28;1436;-61
2021/01/09 01:09:01;;;;;;;;;;;;;;;19.55;60.99;100901.41;5067750;28;1608;-61
2021/01/09 01:11:28;;;;;;;;;;;;;;;19.53;60.69;100904.22;5070181;28;1647;-61
2021/01/09 01:13:53;;;;;;;;;;;;;;;19.48;61.05;100918.06;5076647;28;1692;-59
2021/01/09 01:16:19;;;;;;;;;;;;;;;19.48;61.15;100911.84;5078945;28;1981;-61
2021/01/09 01:18:45;;;;;;;;;;;;;;;19.47;61.03;100910.97;5083094;28;1726;-59
2021/01/09 01:21:10;;;;;;;;;;;;;;;19.45;60.53;100899.53;5085996;28;1750;-61
2021/01/09 01:23:35;;;;;;;;;;;;;;;19.48;60.75;100910.00;5080544;28;1560;-61
2021/01/09 01:26:01;;;;;;;;;;;;;;;19.41;59.99;100903.47;5081107;28;1788;-59
2021/01/09 01:28:26;;;;;;;;;;;;;;;19.47;59.70;100927.06;5069388;28;1647;-59
2021/01/09 01:30:52;;;;;;;;;;;;;;;19.51;59.51;100902.66;5081385;28;1611;-60
2021/01/09 01:33:17;;;;;;;;;;;;;;;19.47;59.48;100908.28;5085414;28;1755;-61
2021/01/09 01:35:43;;;;;;;;;;;;;;;19.51;59.23;100921.44;5085330;28;1885;-61
2021/01/09 01:38:08;;;;;;;;;;;;;;;19.52;59.14;100917.75;5068418;28;1734;-61
2021/01/09 01:40:33;;;;;;;;;;;;;;;19.46;59.69;100920.03;5074250;28;1726;-60
2021/01/09 01:42:59;;;;;;;;;;;;;;;19.49;59.73;100924.25;5075978;28;1687;-61
2021/01/09 01:45:24;;;;;;;;;;;;;;;19.46;58.92;100928.06;5075478;28;1798;-60
2021/01/09 01:47:50;;;;;;;;;;;;;;;19.55;58.65;100947.00;5081523;28;1653;-61
2021/01/09 01:50:15;;;;;;;;;;;;;;;19.53;58.62;100938.25;5078377;28;1584;-61
2021/01/09 01:52:41;;;;;;;;;;;;;;;19.53;58.14;100940.94;5079446;28;1664;-59
2021/01/09 01:55:07;;;;;;;;;;;;;;;19.51;58.59;100926.81;5070980;28;1794;-60
2021/01/09 01:57:33;;;;;;;;;;;;;;;19.46;58.57;100933.44;5064852;28;1902;-60
2021/01/09 01:59:58;;;;;;;;;;;;;;;19.55;58.10;100928.25;5068756;28;1748;-59
2021/01/09 02:02:23;;;;;;;;;;;;;;;19.54;58.48;100931.91;5076261;28;1687;-61
2021/01/09 02:04:53;;;;;;;;;;;;;;;19.57;58.30;100931.63;5079559;28;1521;-59
2021/01/09 02:07:20;;;;;;;;;;;;;;;19.55;58.36;100938.97;5084973;28;2020;-59
2021/01/09 02:09:47;;;;;;;;;;;;;;;19.52;58.75;100948.13;5089802;28;1659;-59
2021/01/09 02:12:14;;;;;;;;;;;;;;;19.62;58.05;100953.56;5067553;28;1522;-61
2021/01/09 02:14:39;;;;;;;;;;;;;;;19.61;58.23;100947.31;5075871;28;1381;-61
2021/01/09 02:17:05;;;;;;;;;;;;;;;19.65;58.18;100950.56;5068645;28;1960;-61
2021/01/09 02:19:32;;;;;;;;;;;;;;;19.57;58.13;100953.94;5063155;28;1415;-61
2021/01/09 02:21:59;;;;;;;;;;;;;;;19.58;58.18;100950.28;5060581;28;1491;-61
2021/01/09 02:24:24;;;;;;;;;;;;;;;19.58;57.91;100960.16;5064456;28;1735;-59
2021/01/09 02:26:50;;;;;;;;;;;;;;;19.64;58.07;100959.63;5065896;28;1850;-61
2021/01/09 02:29:16;;;;;;;;;;;;;;;19.59;57.62;100954.66;5067220;28;1739;-59
2021/01/09 02:31:49;;;;;;;;;;;;;;;19.64;57.82;100960.47;5077764;28;1746;-59
2021/01/09 02:34:16;;;;;;;;;;;;;;;19.55;57.67;100945.16;5078954;28;1767;-59
2021/01/09 02:36:43;;;;;;;;;;;;;;;19.49;57.73;100945.72;5085511;28;1939;-60
2021/01/09 02:39:09;;;;;;;;;;;;;;;19.46;57.75;100930.75;5079172;28;1628;-59
2021/01/09 02:41:35;;;;;;;;;;;;;;;19.45;57.76;100950.50;5069783;28;1798;-59
2021/01/09 02:44:04;;;;;;;;;;;;;;;19.45;57.88;100945.13;5077655;28;1698;-61
2021/01/09 02:46:30;;;;;;;;;;;;;;;19.43;58.07;100947.09;5078720;28;1461;-60
2021/01/09 02:48:55;;;;;;;;;;;;;;;19.38;57.82;100943.97;5074935;28;1473;-61
2021/01/09 02:51:20;;;;;;;;;;;;;;;19.39;57.94;100934.09;5078626;28;1762;-59
2021/01/09 02:53:46;;;;;;;;;;;;;;;19.42;57.80;100945.41;5080619;28;1742;-61
2021/01/09 02:56:11;;;;;;;;;;;;;;;19.42;57.79;100958.81;5083809;28;1902;-60
2021/01/09 02:58:37;;;;;;;;;;;;;;;19.36;57.86;100966.53;5083692;28;1396;-59
2021/01/09 03:01:02;;;;;;;;;;;;;;;19.34;57.75;100953.28;5092046;23;1968;-48
2021/01/09 03:03:27;;;;;;;;;;;;;;;19.37;57.94;100963.72;5086231;28;1575;-47
2021/01/09 03:05:52;;;;;;;;;;;;;;;19.34;57.74;100966.69;5090002;28;2258;-47
2021/01/09 03:08:18;;;;;;;;;;;;;;;19.31;57.84;100955.38;5095738;28;1974;-47
2021/01/09 03:10:43;;;;;;;;;;;;;;;19.40;57.54;100984.09;5099416;22;3692;-64
2021/01/09 03:13:08;;;;;;;;;;;;;;;19.39;57.30;100964.44;5060260;28;1505;-60
2021/01/09 03:15:33;;;;;;;;;;;;;;;19.41;57.47;100977.72;5062021;28;1711;-59
2021/01/09 03:17:59;;;;;;;;;;;;;;;19.31;58.03;100980.34;5067554;28;1914;-59
2021/01/09 03:20:24;;;;;;;;;;;;;;;19.16;58.95;100971.81;5057254;28;1727;-60
2021/01/09 03:22:50;;;;;;;;;;;;;;;19.07;59.48;100978.78;5063862;28;1685;-60
2021/01/09 03:25:15;;;;;;;;;;;;;;;19.00;59.76;100963.34;5064959;28;1671;-60
2021/01/09 03:27:40;;;;;;;;;;;;;;;19.00;60.14;100966.03;5066516;28;1468;-61
2021/01/09 03:30:06;;;;;;;;;;;;;;;18.96;60.42;100970.81;5066616;28;1771;-59
2021/01/09 03:32:31;;;;;;;;;;;;;;;18.97;60.60;100988.59;5068536;28;1509;-59
2021/01/09 03:34:57;;;;;;;;;;;;;;;18.92;60.80;100980.09;5066324;28;1589;-59
2021/01/09 03:37:22;;;;;;;;;;;;;;;18.92;61.14;101001.53;5057045;28;1894;-60
2021/01/09 03:39:48;;;;;;;;;;;;;;;18.91;61.56;101002.50;5058975;28;1759;-59
2021/01/09 03:42:13;;;;;;;;;;;;;;;18.89;61.83;101004.47;5052675;28;1767;-59
2021/01/09 03:44:38;;;;;;;;;;;;;;;18.90;62.08;101003.50;5063741;28;1779;-58
2021/01/09 03:47:11;;;;;;;;;;;;;;;18.92;61.86;101001.53;5065954;28;1787;-58
2021/01/09 03:49:36;;;;;;;;;;;;;;;18.89;62.09;101015.19;5068093;28;1648;-60
2021/01/09 03:52:01;;;;;;;;;;;;;;;18.86;62.28;100997.53;5059629;28;1529;-59
2021/01/09 03:54:27;;;;;;;;;;;;;;;18.85;62.19;100995.00;5067962;28;1767;-60
2021/01/09 03:56:52;;;;;;;;;;;;;;;18.87;62.42;101011.78;5060547;28;1973;-60
2021/01/09 03:59:18;;;;;;;;;;;;;;;18.87;62.43;101012.63;5059404;28;1684;-61
2021/01/09 04:01:43;;;;;;;;;;;;;;;18.89;62.38;101017.88;5055370;28;1740;-60
2021/01/09 04:04:10;;;;;;;;;;;;;;;18.88;61.66;101021.53;5043158;28;1668;-60
2021/01/09 04:06:36;;;;;;;;;;;;;;;18.89;62.41;101023.22;5043905;28;1780;-58
2021/01/09 04:09:02;;;;;;;;;;;;;;;18.95;62.47;101036.09;5040828;28;1641;-59
2021/01/09 04:11:27;;;;;;;;;;;;;;;19.05;62.23;101018.28;5041717;28;1656;-60
2021/01/09 04:13:55;;;;;;;;;;;;;;;19.22;61.97;101030.25;5049444;28;1744;-59
2021/01/09 04:16:20;;;;;;;;;;;;;;;19.34;61.73;101017.63;5037511;28;1918;-60
2021/01/09 04:18:46;;;;;;;;;;;;;;;19.48;61.54;101025.34;5047066;28;1707;-60
2021/01/09 04:21:11;;;;;;;;;;;;;;;19.60;61.01;101039.53;5041282;28;1628;-60
2021/01/09 04:23:37;;;;;;;;;;;;;;;19.71;60.89;101048.47;5047952;28;1681;-60
2021/01/09 04:26:02;;;;;;;;;;;;;;;19.80;61.23;101036.97;5038862;28;1617;-60
2021/01/09 04:28:27;;;;;;;;;;;;;;;19.97;61.30;101040.84;5040846;28;1661;-61
2021/01/09 04:30:53;;;;;;;;;;;;;;;20.01;61.31;101035.06;5040998;28;1671;-60
2021/01/09 04:33:18;;;;;;;;;;;;;;;19.90;64.02;101039.72;5042139;28;1394;-61
2021/01/09 04:35:43;;;;;;;;;;;;;;;19.83;63.12;101026.78;5047882;28;1889;-59
2021/01/09 04:38:09;;;;;;;;;;;;;;;19.77;63.18;101048.81;5043603;28;1595;-60
2021/01/09 04:40:35;;;;;;;;;;;;;;;19.75;62.38;101045.41;5038188;28;1703;-59
2021/01/09 04:43:00;;;;;;;;;;;;;;;19.66;62.54;101057.78;5035800;28;1409;-60
2021/01/09 04:45:26;;;;;;;;;;;;;;;19.54;61.82;101050.78;5040413;28;1726;-59
2021/01/09 04:47:51;;;;;;;;;;;;;;;19.53;61.78;101069.69;5043274;28;1589;-59
2021/01/09 04:50:17;;;;;;;;;;;;;;;19.58;61.43;101067.47;5037768;28;1774;-60
2021/01/09 04:52:43;;;;;;;;;;;;;;;19.56;62.00;101075.66;5036492;28;1780;-59
2021/01/09 04:55:08;;;;;;;;;;;;;;;19.50;62.16;101080.66;5036087;28;1425;-58
2021/01/09 04:57:34;;;;;;;;;;;;;;;19.47;62.37;101092.50;5035224;28;1951;-59
2021/01/09 04:59:59;;;;;;;;;;;;;;;19.42;62.51;101090.22;5036700;28;1389;-63
2021/01/09 05:02:25;;;;;;;;;;;;;;;19.45;62.19;101111.41;5037376;28;1465;-58
2021/01/09 05:04:51;;;;;;;;;;;;;;;19.39;62.10;101101.22;5031306;28;11725;-60
2021/01/09 05:07:16;;;;;;;;;;;;;;;19.34;62.26;101095.41;5034754;28;1430;-60
2021/01/09 05:09:43;;;;;;;;;;;;;;;19.33;62.85;101093.69;5034671;28;1426;-61
2021/01/09 05:12:21;;;;;;;;;;;;;;;19.28;61.90;101098.59;5035692;28;1608;-60
2021/01/09 05:14:46;;;;;;;;;;;;;;;19.31;62.12;101106.38;5035517;28;1795;-61
2021/01/09 05:17:12;;;;;;;;;;;;;;;19.24;62.58;101097.16;5018823;28;1906;-61
2021/01/09 05:19:37;;;;;;;;;;;;;;;19.22;63.08;101099.13;5036798;28;1481;-61
2021/01/09 05:22:03;;;;;;;;;;;;;;;19.15;63.22;101092.56;5034452;28;1451;-58
2021/01/09 05:24:29;;;;;;;;;;;;;;;19.16;63.18;101096.94;5033734;28;1596;-58
2021/01/09 05:26:54;;;;;;;;;;;;;;;19.17;63.72;101112.03;5032352;28;1568;-60
2021/01/09 05:29:20;;;;;;;;;;;;;;;19.14;63.50;101114.97;5033193;28;1891;-60
2021/01/09 05:31:45;;;;;;;;;;;;;;;19.11;63.87;101128.66;5031574;28;1556;-60
2021/01/09 05:34:11;;;;;;;;;;;;;;;19.10;63.57;101127.81;5034492;28;1496;-59
2021/01/09 05:36:38;;;;;;;;;;;;;;;19.07;63.48;101126.19;5038877;28;1951;-58
2021/01/09 05:39:04;;;;;;;;;;;;;;;19.10;62.94;101135.84;5037296;28;1440;-58
2021/01/09 05:41:29;;;;;;;;;;;;;;;19.09;63.02;101131.44;5036565;28;1489;-58
2021/01/09 05:43:57;;;;;;;;;;;;;;;19.04;63.07;101133.69;5040074;28;1422;-58
2021/01/09 05:46:23;;;;;;;;;;;;;;;19.03;63.55;101156.94;5038738;28;1418;-60
2021/01/09 05:48:49;;;;;;;;;;;;;;;19.05;63.46;101151.44;5036913;28;1501;-58
2021/01/09 05:51:14;;;;;;;;;;;;;;;19.06;63.33;101162.03;5041078;28;1446;-58
2021/01/09 05:53:43;;;;;;;;;;;;;;;19.08;63.47;101176.19;5040650;28;1454;-59
2021/01/09 05:56:14;;;;;;;;;;;;;;;19.08;63.78;101173.50;5037060;28;1944;-59
2021/01/09 05:58:40;;;;;;;;;;;;;;;19.10;63.55;101186.78;5039724;28;1736;-59
2021/01/09 06:01:09;;;;;;;;;;;;;;;19.10;64.21;101176.06;5042663;28;1707;-58
2021/01/09 06:03:37;;;;;;;;;;;;;;;19.10;63.62;101188.59;5039598;28;1497;-60
2021/01/09 06:06:08;;;;;;;;;;;;;;;19.09;63.99;101185.06;5046689;28;1740;-59
2021/01/09 06:08:33;;;;;;;;;;;;;;;19.07;63.88;101178.97;5036990;28;1750;-60
2021/01/09 06:11:01;;;;;;;;;;;;;;;19.09;63.93;101171.66;5046219;28;1645;-59
2021/01/09 06:13:30;;;;;;;;;;;;;;;19.08;63.96;101194.09;5037542;28;1416;-60
2021/01/09 06:16:02;;;;;;;;;;;;;;;19.06;63.81;101194.22;5044336;28;1969;-59
2021/01/09 06:18:28;;;;;;;;;;;;;;;19.04;63.28;101196.16;5039482;28;1574;-58
2021/01/09 06:20:54;;;;;;;;;;;;;;;19.04;63.76;101204.22;5039583;28;1742;-58
2021/01/09 06:23:19;;;;;;;;;;;;;;;19.02;63.49;101208.84;5042471;28;1815;-59
2021/01/09 06:25:47;;;;;;;;;;;;;;;19.03;63.44;101215.03;5044102;28;1684;-60
2021/01/09 06:28:13;;;;;;;;;;;;;;;19.02;63.50;101207.97;5041982;28;1394;-60
2021/01/09 06:30:41;;;;;;;;;;;;;;;19.00;63.35;101208.13;5050054;28;1664;-59
2021/01/09 06:33:13;;;;;;;;;;;;;;;19.00;63.47;101207.25;5045983;28;1747;-58
2021/01/09 06:35:39;;;;;;;;;;;;;;;18.99;63.66;101211.75;5043892;28;1397;-58
2021/01/09 06:38:06;;;;;;;;;;;;;;;19.01;63.39;101204.44;5042360;28;1952;-59
2021/01/09 06:40:31;;;;;;;;;;;;;;;18.99;63.28;101219.81;5046528;28;1677;-62
2021/01/09 06:42:57;;;;;;;;;;;;;;;18.99;63.50;101216.28;5039198;28;1452;-59
2021/01/09 06:45:23;;;;;;;;;;;;;;;18.99;63.31;101225.16;5038420;28;1625;-59
2021/01/09 06:47:58;;;;;;;;;;;;;;;19.00;63.61;101234.03;5039129;28;1444;-61
2021/01/09 06:50:26;;;;;;;;;;;;;;;18.98;63.88;101241.34;5043267;28;1672;-59
2021/01/09 06:52:55;;;;;;;;;;;;;;;18.97;63.54;101267.31;5043588;28;1455;-60
2021/01/09 06:55:35;;;;;;;;;;;;;;;19.00;63.65;101277.81;5041388;28;1602;-58
2021/01/09 06:58:01;;;;;;;;;;;;;;;18.99;63.72;101281.44;5041928;28;1890;-58
2021/01/09 07:00:26;;;;;;;;;;;;;;;19.04;63.69;101289.97;5049739;28;1739;-59
2021/01/09 07:03:10;;;;;;;;;;;;;;;19.16;63.62;101279.22;5048442;28;1394;-61
2021/01/09 07:05:42;;;;;;;;;;;;;;;19.17;64.03;101286.31;5036618;28;2083;-60
2021/01/09 07:08:07;;;;;;;;;;;;;;;19.21;65.63;101279.72;5035969;28;1299;-59
2021/01/09 07:10:42;;;;;;;;;;;;;;;19.23;66.40;101277.75;5036522;28;1378;-60
2021/01/09 07:13:08;;;;;;;;;;;;;;;19.29;67.55;101285.31;5031009;28;1385;-58
2021/01/09 07:15:35;;;;;;;;;;;;;;;19.36;66.93;101299.94;5037067;28;1574;-58
2021/01/09 07:18:01;;;;;;;;;;;;;;;19.51;67.01;101296.97;5036961;28;1910;-60
2021/01/09 07:20:33;;;;;;;;;;;;;;;19.57;67.52;101296.47;5036513;28;1542;-64
2021/01/09 07:23:00;;;;;;;;;;;;;;;19.47;67.64;101307.94;5038673;28;1493;-59
2021/01/09 07:25:41;;;;;;;;;;;;;;;19.39;67.57;101293.47;5036000;28;1505;-61
2021/01/09 07:28:10;;;;;;;;;;;;;;;19.38;67.89;101306.03;5032660;28;1407;-62
2021/01/09 07:30:36;;;;;;;;;;;;;;;19.32;68.49;101309.22;5038535;28;1664;-59
2021/01/09 07:33:01;;;;;;;;;;;;;;;19.22;68.46;101322.50;5034171;28;1431;-62
2021/01/09 07:35:31;;;;;;;;;;;;;;;19.11;66.65;101337.75;5029368;28;1621;-60
2021/01/09 07:37:57;;;;;;;;;;;;;;;19.21;65.06;101327.97;5035173;28;1894;-59
2021/01/09 07:40:23;;;;;;;;;;;;;;;19.21;67.07;101333.34;5031698;28;1250;-63
2021/01/09 07:42:49;;;;;;;;;;;;;;;19.17;67.18;101321.16;5035540;28;1537;-59
2021/01/09 07:45:19;;;;;;;;;;;;;;;19.17;67.64;101331.88;5033857;28;1655;-59
2021/01/09 07:47:46;;;;;;;;;;;;;;;19.08;68.09;101328.13;5036287;28;1380;-59
2021/01/09 07:50:13;;;;;;;;;;;;;;;19.08;68.24;101333.47;5036748;28;1474;-59
2021/01/09 07:52:38;;;;;;;;;;;;;;;19.05;66.68;101323.84;5031324;28;1475;-60
2021/01/09 07:55:05;;;;;;;;;;;;;;;19.03;69.40;101325.78;5036788;28;1566;-62
2021/01/09 07:57:30;;;;;;;;;;;;;;;19.05;67.73;101337.25;5035911;28;1889;-59
2021/01/09 07:59:56;;;;;;;;;;;;;;;19.08;67.81;101361.13;5030434;28;1772;-58
2021/01/09 08:02:34;;;;;;;;;;;;;;;19.10;67.33;101344.94;5035020;28;1502;-62
2021/01/09 08:05:03;;;;;;;;;;;;;;;19.15;67.44;101352.59;5035353;28;1604;-62
2021/01/09 08:07:29;;;;;;;;;;;;;;;19.22;65.58;101360.03;5032509;28;1558;-61
2021/01/09 08:09:54;;;;;;;;;;;;;;;19.19;67.58;101356.75;5033064;28;1586;-60
2021/01/09 08:12:37;;;;;;;;;;;;;;;19.12;67.33;101353.72;5023063;28;1544;-60
2021/01/09 08:15:03;;;;;;;;;;;;;;;19.28;66.64;101356.88;5034812;28;1371;-59
2021/01/09 08:17:29;;;;;;;;;;;;;;;19.36;67.20;101364.28;5034767;28;1980;-62
2021/01/09 08:19:54;;;;;;;;;;;;;;;19.37;67.42;101366.00;5035601;28;1455;-55
2021/01/09 08:22:19;;;;;;;;;;;;;;;19.39;66.86;101369.41;5033342;28;1287;-64
2021/01/09 08:24:45;;;;;;;;;;;;;;;19.44;67.01;101361.00;5039194;28;2487;-67
2021/01/09 08:27:17;;;;;;;;;;;;;;;19.52;66.43;101369.28;5033965;28;2457;-65
2021/01/09 08:29:43;;;;;;;;;;;;;;;19.49;66.82;101361.47;5031299;28;1692;-62
2021/01/09 08:32:11;;;;;;;;;;;;;;;19.47;66.92;101369.63;5035001;28;1409;-59
2021/01/09 08:34:37;;;;;;;;;;;;;;;19.52;66.70;101363.03;5031945;28;1565;-66
2021/01/09 08:37:02;;;;;;;;;;;;;;;19.52;67.20;101368.41;5015875;28;1943;-65
2021/01/09 08:39:28;;;;;;;;;;;;;;;19.61;67.72;101379.25;5015927;28;1541;-59
2021/01/09 08:41:53;;;;;;;;;;;;;;;19.67;68.43;101369.84;5034896;28;1799;-58
2021/01/09 08:44:18;;;;;;;;;;;;;;;19.63;68.71;101366.56;5034347;28;1497;-58
2021/01/09 08:46:45;;;;;;;;;;;;;;;19.70;69.01;101383.03;5033758;28;1402;-66
2021/01/09 08:49:26;;;;;;;;;;;;;;;19.57;68.75;101371.56;5017458;28;1562;-60
2021/01/09 08:51:57;;;;;;;;;;;;;;;19.56;69.03;101391.34;5038394;28;1456;-64
2021/01/09 08:54:23;;;;;;;;;;;;;;;19.65;68.32;101385.22;5032282;28;1399;-59
2021/01/09 08:56:48;;;;;;;;;;;;;;;19.63;68.63;101381.81;5034310;28;1939;-59
2021/01/09 08:59:14;;;;;;;;;;;;;;;19.57;68.35;101360.84;5033615;28;1517;-62
2021/01/09 09:01:41;;;;;;;;;;;;;;;19.57;68.75;101369.75;5033313;28;1460;-65
2021/01/09 09:04:08;;;;;;;;;;;;;;;19.52;69.33;101371.09;5033332;28;1389;-60
2021/01/09 09:06:35;;;;;;;;;;;;;;;19.53;69.55;101364.75;5031931;28;2069;-59
2021/01/09 09:09:01;;;;;;;;;;;;;;;19.58;69.80;101357.19;5028257;28;2321;-59
2021/01/09 09:11:26;;;;;;;;;;;;;;;19.58;69.60;101375.97;5034661;28;1095;-64
2021/01/09 09:14:11;;;;;;;;;;;;;;;19.53;69.11;101373.66;5032885;28;1157;-68
2021/01/09 09:16:38;;;;;;;;;;;;;;;19.51;69.39;101378.28;5033108;28;1922;-60
2021/01/09 09:19:16;;;;;;;;;;;;;;;19.47;69.43;101383.03;5017561;28;1290;-59
2021/01/09 09:21:56;;;;;;;;;;;;;;;19.42;69.05;101390.63;5031989;28;1323;-59
2021/01/09 09:24:36;;;;;;;;;;;;;;;19.43;68.76;101400.34;5034215;28;1356;-57
2021/01/09 09:27:01;;;;;;;;;;;;;;;19.41;68.85;101388.91;5022651;28;1390;-61
2021/01/09 09:29:32;;;;;;;;;;;;;;;19.35;69.10;101384.03;5033609;28;1243;-66
2021/01/09 09:31:57;;;;;;;;;;;;;;;19.32;69.12;101384.28;5017469;28;1224;-57
2021/01/09 09:34:26;;;;;;;;;;;;;;;19.35;68.96;101385.88;5021854;28;1280;-63
2021/01/09 09:36:52;;;;;;;;;;;;;;;19.31;68.83;101385.25;5036598;28;1902;-58
2021/01/09 09:39:18;;;;;;;;;;;;;;;19.31;68.81;101384.41;5034909;28;1350;-58
2021/01/09 09:41:50;;;;;;;;;;;;;;;19.10;69.08;101378.91;5033110;28;1386;-62
2021/01/09 09:44:16;;;;;;;;;;;;;;;19.23;68.42;101368.94;5017033;28;1529;-70
2021/01/09 09:46:42;;;;;;;;;;;;;;;19.26;68.18;101348.09;5026038;28;10864;-58
2021/01/09 09:49:07;;;;;;;;;;;;;;;19.30;68.60;101359.44;5028189;28;1467;-59
2021/01/09 09:51:34;;;;;;;;;;;;;;;19.43;68.05;101354.75;5034562;28;1558;-66
2021/01/09 09:53:59;;;;;;;;;;;;;;;19.43;68.71;101349.41;5040982;28;1529;-66
2021/01/09 09:56:25;;;;;;;;;;;;;;;19.40;69.14;101352.34;5036063;28;1972;-68
2021/01/09 09:59:00;;;;;;;;;;;;;;;19.34;68.67;101342.13;5035513;28;1447;-59
2021/01/09 10:01:27;;;;;;;;;;;;;;;17.64;63.05;101332.75;5034904;28;1513;-61
2021/01/09 10:03:53;;;;;;;;;;;;;;;16.22;68.21;101351.63;5029951;28;1760;-58
2021/01/09 10:06:18;;;;;;;;;;;;;;;15.57;61.50;101361.16;5033524;28;1444;-62
2021/01/09 10:08:43;;;;;;;;;;;;;;;17.05;66.70;101341.47;5036280;28;1418;-57
2021/01/09 10:11:09;;;;;;;;;;;;;;;18.19;64.08;101335.00;5034782;28;1747;-60
2021/01/09 10:13:35;;;;;;;;;;;;;;;18.66;63.74;101317.97;5032381;28;1485;-59
2021/01/09 10:16:01;;;;;;;;;;;;;;;18.97;63.61;101330.78;5039331;28;1980;-71
2021/01/09 10:18:27;;;;;;;;;;;;;;;19.10;64.18;101325.28;5035789;28;1568;-57
2021/01/09 10:20:53;;;;;;;;;;;;;;;19.16;63.94;101316.75;5032708;28;1427;-59
2021/01/09 10:23:18;;;;;;;;;;;;;;;19.27;64.29;101311.41;5036297;28;1727;-59
2021/01/09 10:25:44;;;;;;;;;;;;;;;19.41;64.08;101304.91;5035912;28;1389;-61
2021/01/09 10:28:09;;;;;;;;;;;;;;;19.45;64.48;101293.81;5033803;28;1406;-62
2021/01/09 10:30:35;;;;;;;;;;;;;;;19.44;64.55;101289.44;5037057;28;1393;-75
2021/01/09 10:33:00;;;;;;;;;;;;;;;19.45;64.97;101288.44;5015694;28;1477;-59
2021/01/09 10:35:25;;;;;;;;;;;;;;;19.45;65.42;101298.31;5036570;28;1628;-62
2021/01/09 10:37:51;;;;;;;;;;;;;;;19.40;65.68;101296.03;5035768;28;1945;-59
2021/01/09 10:40:16;;;;;;;;;;;;;;;19.45;66.23;101283.06;5025421;28;1442;-63
2021/01/09 10:42:42;;;;;;;;;;;;;;;19.60;66.89;101280.13;5033189;28;1403;-71
2021/01/09 10:45:07;;;;;;;;;;;;;;;19.50;66.52;101281.84;5031927;28;1358;-59
2021/01/09 10:47:33;;;;;;;;;;;;;;;19.07;66.53;101297.75;5031433;28;1483;-58
2021/01/09 10:49:58;;;;;;;;;;;;;;;18.97;67.14;101304.84;5027133;28;1625;-57
2021/01/09 10:52:24;;;;;;;;;;;;;;;19.28;66.06;101299.72;5032824;28;1509;-59
2021/01/09 10:54:49;;;;;;;;;;;;;;;19.53;66.29;101297.69;5032234;28;1358;-57
2021/01/09 10:57:15;;;;;;;;;;;;;;;19.59;66.39;101300.72;5030902;28;1886;-63
2021/01/09 10:59:40;;;;;;;;;;;;;;;19.59;66.75;101295.34;5036273;28;1494;-72
2021/01/09 11:02:06;;;;;;;;;;;;;;;19.64;66.83;101314.63;5027760;28;1734;-66
2021/01/09 11:04:32;;;;;;;;;;;;;;;19.73;66.84;101329.13;5034491;28;1387;-61
2021/01/09 11:06:58;;;;;;;;;;;;;;;19.72;66.96;101315.84;5034951;28;1450;-68
2021/01/09 11:09:24;;;;;;;;;;;;;;;19.75;67.06;101313.75;5020333;28;1585;-67
2021/01/09 11:11:49;;;;;;;;;;;;;;;19.79;67.48;101317.03;5020835;28;2261;-67
2021/01/09 11:14:14;;;;;;;;;;;;;;;19.76;66.29;101320.84;5032942;28;1392;-60
2021/01/09 11:16:40;;;;;;;;;;;;;;;19.81;67.24;101325.81;5032826;28;1984;-69
2021/01/09 11:19:05;;;;;;;;;;;;;;;19.86;67.26;101331.66;5031618;28;1180;-63
2021/01/09 11:21:38;;;;;;;;;;;;;;;19.91;67.73;101339.31;5022988;28;1710;-66
2021/01/09 11:24:06;;;;;;;;;;;;;;;19.94;68.44;101331.03;5031042;28;1494;-65
2021/01/09 11:26:32;;;;;;;;;;;;;;;19.91;69.09;101325.91;5032877;28;1439;-72
2021/01/09 11:29:04;;;;;;;;;;;;;;;19.92;68.86;101320.41;5038585;28;1381;-61
2021/01/09 11:31:29;;;;;;;;;;;;;;;20.00;68.72;101333.19;5031924;28;1395;-67
2021/01/09 11:33:55;;;;;;;;;;;;;;;19.96;68.62;101324.53;5015674;28;1552;-66
2021/01/09 11:36:20;;;;;;;;;;;;;;;20.07;69.51;101304.84;5018765;28;1917;-57
2021/01/09 11:38:46;;;;;;;;;;;;;;;20.14;69.75;101305.19;5033302;28;1352;-63
2021/01/09 11:41:11;;;;;;;;;;;;;;;20.11;69.48;101333.13;5036166;28;1392;-59
2021/01/09 11:43:37;;;;;;;;;;;;;;;20.03;69.28;101330.25;5043199;28;1466;-70
2021/01/09 11:46:03;;;;;;;;;;;;;;;20.08;69.28;101327.19;5034413;28;1696;-69
2021/01/09 11:48:28;;;;;;;;;;;;;;;20.02;69.55;101324.03;5041148;28;1435;-64
2021/01/09 11:50:54;;;;;;;;;;;;;;;19.97;69.34;101325.38;5038192;28;1629;-66
2021/01/09 11:53:20;;;;;;;;;;;;;;;19.95;70.01;101332.72;5030490;28;1530;-65
2021/01/09 11:55:46;;;;;;;;;;;;;;;20.00;69.99;101334.03;5031270;28;1501;-61
2021/01/09 11:58:11;;;;;;;;;;;;;;;20.00;69.14;101325.16;5033141;28;1885;-58
2021/01/09 12:00:36;;;;;;;;;;;;;;;19.96;69.49;101319.16;5037197;28;1523;-68
2021/01/09 12:03:02;;;;;;;;;;;;;;;19.98;68.53;101311.00;5039799;28;1436;-64
2021/01/09 12:05:28;;;;;;;;;;;;;;;19.88;70.21;101299.34;5038097;28;1700;-68
2021/01/09 12:07:53;;;;;;;;;;;;;;;19.98;69.89;101319.06;5037218;28;1641;-65
2021/01/09 12:10:18;;;;;;;;;;;;;;;20.09;69.78;101321.66;5030627;28;1618;-72
2021/01/09 12:12:50;;;;;;;;;;;;;;;20.19;68.96;101325.31;5033694;28;1331;-68
2021/01/09 12:15:15;;;;;;;;;;;;;;;20.27;68.82;101332.69;5045739;28;1370;-61
2021/01/09 12:17:41;;;;;;;;;;;;;;;20.32;69.51;101346.59;5041159;28;1983;-70
2021/01/09 12:20:06;;;;;;;;;;;;;;;20.35;69.24;101340.97;5035462;28;1481;-67
2021/01/09 12:22:31;;;;;;;;;;;;;;;20.36;69.73;101347.19;5059194;28;1385;-62
2021/01/09 12:24:59;;;;;;;;;;;;;;;20.40;69.62;101348.63;5052745;28;1740;-58
2021/01/09 12:27:25;;;;;;;;;;;;;;;20.40;69.60;101346.78;5054175;28;1374;-68
2021/01/09 12:29:51;;;;;;;;;;;;;;;20.36;69.76;101347.19;5056376;28;1612;-63
2021/01/09 12:32:16;;;;;;;;;;;;;;;20.51;68.71;101337.78;5059221;28;1314;-60
2021/01/09 12:34:41;;;;;;;;;;;;;;;19.71;70.39;101335.56;5051930;28;1386;-60
2021/01/09 12:37:07;;;;;;;;;;;;;;;19.64;69.20;101325.34;5054083;28;1886;-63
2021/01/09 12:39:32;;;;;;;;;;;;;;;19.63;68.20;101334.34;5049202;28;1363;-61
2021/01/09 12:41:58;;;;;;;;;;;;;;;19.67;68.38;101340.34;5038811;28;1387;-60
2021/01/09 12:44:23;;;;;;;;;;;;;;;19.67;68.69;101334.97;5040431;28;1589;-60